sensor_id;sensor_type;location;lat;lon;timestamp;temperature;humidity
54540;SHT30;40438;52.992;18.604;2024-02-21T00:01:55;6.01;92.21
54540;SHT30;40438;52.992;18.604;2024-02-21T00:04:22;6.05;92.20
54540;SHT30;40438;52.992;18.604;2024-02-21T00:06:47;5.95;92.37
54540;SHT30;40438;52.992;18.604;2024-02-21T00:09:13;5.95;92.44
54540;SHT30;40438;52.992;18.604;2024-02-21T00:11:40;6.11;92.29
54540;SHT30;40438;52.992;18.604;2024-02-21T00:14:06;6.11;91.83
54540;SHT30;40438;52.992;18.604;2024-02-21T00:16:32;6.02;92.26
54540;SHT30;40438;52.992;18.604;2024-02-21T00:18:57;5.97;92.51
54540;SHT30;40438;52.992;18.604;2024-02-21T00:21:24;5.98;92.65
54540;SHT30;40438;52.992;18.604;2024-02-21T00:23:50;6.01;92.63
54540;SHT30;40438;52.992;18.604;2024-02-21T00:26:16;6.02;92.64
54540;SHT30;40438;52.992;18.604;2024-02-21T00:28:42;6.02;92.64
54540;SHT30;40438;52.992;18.604;2024-02-21T00:31:07;6.01;92.65
54540;SHT30;40438;52.992;18.604;2024-02-21T00:33:33;6.02;92.76
54540;SHT30;40438;52.992;18.604;2024-02-21T00:35:59;6.08;92.72
54540;SHT30;40438;52.992;18.604;2024-02-21T00:38:26;6.07;92.64
54540;SHT30;40438;52.992;18.604;2024-02-21T00:40:52;6.14;92.48
54540;SHT30;40438;52.992;18.604;2024-02-21T00:43:17;6.12;92.43
54540;SHT30;40438;52.992;18.604;2024-02-21T00:45:43;6.12;92.48
54540;SHT30;40438;52.992;18.604;2024-02-21T00:48:09;6.11;92.60
54540;SHT30;40438;52.992;18.604;2024-02-21T00:50:35;6.09;92.81
54540;SHT30;40438;52.992;18.604;2024-02-21T00:53:00;6.05;93.07
54540;SHT30;40438;52.992;18.604;2024-02-21T00:55:27;6.12;93.17
54540;SHT30;40438;52.992;18.604;2024-02-21T00:57:53;6.15;93.14
54540;SHT30;40438;52.992;18.604;2024-02-21T01:00:19;6.09;93.38
54540;SHT30;40438;52.992;18.604;2024-02-21T01:02:45;6.11;93.53
54540;SHT30;40438;52.992;18.604;2024-02-21T01:05:11;6.17;93.29
54540;SHT30;40438;52.992;18.604;2024-02-21T01:07:36;6.09;93.59
54540;SHT30;40438;52.992;18.604;2024-02-21T01:10:03;6.14;93.39
54540;SHT30;40438;52.992;18.604;2024-02-21T01:12:30;6.18;93.31
54540;SHT30;40438;52.992;18.604;2024-02-21T01:14:56;6.12;93.53
54540;SHT30;40438;52.992;18.604;2024-02-21T01:17:21;6.12;93.70
54540;SHT30;40438;52.992;18.604;2024-02-21T01:19:47;6.11;93.65
54540;SHT30;40438;52.992;18.604;2024-02-21T01:22:13;6.08;93.71
54540;SHT30;40438;52.992;18.604;2024-02-21T01:24:39;6.01;93.80
54540;SHT30;40438;52.992;18.604;2024-02-21T01:27:04;6.11;93.62
54540;SHT30;40438;52.992;18.604;2024-02-21T01:29:31;6.09;93.66
54540;SHT30;40438;52.992;18.604;2024-02-21T01:31:57;6.07;93.64
54540;SHT30;40438;52.992;18.604;2024-02-21T01:34:23;6.02;93.68
54540;SHT30;40438;52.992;18.604;2024-02-21T01:36:48;5.99;93.67
54540;SHT30;40438;52.992;18.604;2024-02-21T01:39:14;5.95;93.67
54540;SHT30;40438;52.992;18.604;2024-02-21T01:41:40;5.94;93.82
54540;SHT30;40438;52.992;18.604;2024-02-21T01:44:06;5.99;93.54
54540;SHT30;40438;52.992;18.604;2024-02-21T01:46:34;5.95;93.58
54540;SHT30;40438;52.992;18.604;2024-02-21T01:49:00;5.93;93.72
54540;SHT30;40438;52.992;18.604;2024-02-21T01:51:27;5.94;93.64
54540;SHT30;40438;52.992;18.604;2024-02-21T01:53:53;5.90;93.71
54540;SHT30;40438;52.992;18.604;2024-02-21T01:56:21;5.91;93.80
54540;SHT30;40438;52.992;18.604;2024-02-21T01:58:48;5.86;93.99
54540;SHT30;40438;52.992;18.604;2024-02-21T02:01:14;5.86;94.01
54540;SHT30;40438;52.992;18.604;2024-02-21T02:03:42;5.91;93.97
54540;SHT30;40438;52.992;18.604;2024-02-21T02:06:10;5.95;93.94
54540;SHT30;40438;52.992;18.604;2024-02-21T02:08:36;5.93;93.97
54540;SHT30;40438;52.992;18.604;2024-02-21T02:11:02;5.95;94.08
54540;SHT30;40438;52.992;18.604;2024-02-21T02:13:28;5.95;94.10
54540;SHT30;40438;52.992;18.604;2024-02-21T02:15:54;5.95;94.17
54540;SHT30;40438;52.992;18.604;2024-02-21T02:18:20;5.94;94.18
54540;SHT30;40438;52.992;18.604;2024-02-21T02:20:47;5.97;94.20
54540;SHT30;40438;52.992;18.604;2024-02-21T02:23:20;5.95;94.29
54540;SHT30;40438;52.992;18.604;2024-02-21T02:25:46;5.98;94.15
54540;SHT30;40438;52.992;18.604;2024-02-21T02:28:12;6.05;94.13
54540;SHT30;40438;52.992;18.604;2024-02-21T02:30:37;5.99;94.10
54540;SHT30;40438;52.992;18.604;2024-02-21T02:33:03;5.97;94.33
54540;SHT30;40438;52.992;18.604;2024-02-21T02:35:29;6.01;94.12
54540;SHT30;40438;52.992;18.604;2024-02-21T02:37:55;6.01;94.17
54540;SHT30;40438;52.992;18.604;2024-02-21T02:40:23;5.99;94.22
54540;SHT30;40438;52.992;18.604;2024-02-21T02:42:49;6.07;94.07
54540;SHT30;40438;52.992;18.604;2024-02-21T02:45:15;6.04;94.02
54540;SHT30;40438;52.992;18.604;2024-02-21T02:47:40;6.01;94.01
54540;SHT30;40438;52.992;18.604;2024-02-21T02:50:07;6.02;93.99
54540;SHT30;40438;52.992;18.604;2024-02-21T02:52:33;6.09;93.90
54540;SHT30;40438;52.992;18.604;2024-02-21T02:54:59;6.12;93.81
54540;SHT30;40438;52.992;18.604;2024-02-21T02:57:26;6.08;93.76
54540;SHT30;40438;52.992;18.604;2024-02-21T02:59:52;6.14;93.61
54540;SHT30;40438;52.992;18.604;2024-02-21T03:02:17;6.14;93.65
54540;SHT30;40438;52.992;18.604;2024-02-21T03:04:43;6.21;93.37
54540;SHT30;40438;52.992;18.604;2024-02-21T03:07:09;6.30;92.90
54540;SHT30;40438;52.992;18.604;2024-02-21T03:09:35;6.29;92.99
54540;SHT30;40438;52.992;18.604;2024-02-21T03:12:00;6.18;93.02
54540;SHT30;40438;52.992;18.604;2024-02-21T03:14:28;6.12;93.13
54540;SHT30;40438;52.992;18.604;2024-02-21T03:16:53;6.28;92.68
54540;SHT30;40438;52.992;18.604;2024-02-21T03:19:19;6.14;93.05
54540;SHT30;40438;52.992;18.604;2024-02-21T03:21:45;6.22;93.14
54540;SHT30;40438;52.992;18.604;2024-02-21T03:24:11;6.22;92.80
54540;SHT30;40438;52.992;18.604;2024-02-21T03:26:36;6.26;92.78
54540;SHT30;40438;52.992;18.604;2024-02-21T03:29:03;6.30;92.76
54540;SHT30;40438;52.992;18.604;2024-02-21T03:31:30;6.26;92.68
54540;SHT30;40438;52.992;18.604;2024-02-21T03:33:55;6.21;92.91
54540;SHT30;40438;52.992;18.604;2024-02-21T03:36:21;6.30;92.89
54540;SHT30;40438;52.992;18.604;2024-02-21T03:38:47;6.26;92.81
54540;SHT30;40438;52.992;18.604;2024-02-21T03:41:13;6.25;92.90
54540;SHT30;40438;52.992;18.604;2024-02-21T03:43:38;6.25;93.05
54540;SHT30;40438;52.992;18.604;2024-02-21T03:46:04;6.26;92.96
54540;SHT30;40438;52.992;18.604;2024-02-21T03:48:31;6.24;92.94
54540;SHT30;40438;52.992;18.604;2024-02-21T03:50:57;6.18;93.18
54540;SHT30;40438;52.992;18.604;2024-02-21T03:53:23;6.15;93.32
54540;SHT30;40438;52.992;18.604;2024-02-21T03:55:49;6.17;93.52
54540;SHT30;40438;52.992;18.604;2024-02-21T03:58:14;6.22;93.38
54540;SHT30;40438;52.992;18.604;2024-02-21T04:00:40;6.18;93.43
54540;SHT30;40438;52.992;18.604;2024-02-21T04:03:06;6.22;93.31
54540;SHT30;40438;52.992;18.604;2024-02-21T04:05:33;6.19;93.44
54540;SHT30;40438;52.992;18.604;2024-02-21T04:07:59;6.21;93.42
54540;SHT30;40438;52.992;18.604;2024-02-21T04:10:25;6.14;93.68
54540;SHT30;40438;52.992;18.604;2024-02-21T04:12:50;6.15;93.74
54540;SHT30;40438;52.992;18.604;2024-02-21T04:15:16;6.14;93.96
54540;SHT30;40438;52.992;18.604;2024-02-21T04:17:42;6.12;93.90
54540;SHT30;40438;52.992;18.604;2024-02-21T04:20:14;6.12;93.82
54540;SHT30;40438;52.992;18.604;2024-02-21T04:22:42;6.11;93.97
54540;SHT30;40438;52.992;18.604;2024-02-21T04:25:08;6.11;93.98
54540;SHT30;40438;52.992;18.604;2024-02-21T04:27:34;6.17;93.95
54540;SHT30;40438;52.992;18.604;2024-02-21T04:30:00;6.15;93.85
54540;SHT30;40438;52.992;18.604;2024-02-21T04:32:25;6.15;93.95
54540;SHT30;40438;52.992;18.604;2024-02-21T04:34:51;6.12;94.06
54540;SHT30;40438;52.992;18.604;2024-02-21T04:37:17;6.15;94.04
54540;SHT30;40438;52.992;18.604;2024-02-21T04:39:44;6.17;93.95
54540;SHT30;40438;52.992;18.604;2024-02-21T04:42:10;6.17;94.07
54540;SHT30;40438;52.992;18.604;2024-02-21T04:44:35;6.17;94.11
54540;SHT30;40438;52.992;18.604;2024-02-21T04:47:01;6.19;94.00
54540;SHT30;40438;52.992;18.604;2024-02-21T04:49:27;6.14;94.21
54540;SHT30;40438;52.992;18.604;2024-02-21T04:51:53;6.17;94.14
54540;SHT30;40438;52.992;18.604;2024-02-21T04:54:19;6.19;93.97
54540;SHT30;40438;52.992;18.604;2024-02-21T04:56:46;6.19;94.06
54540;SHT30;40438;52.992;18.604;2024-02-21T04:59:12;6.18;94.12
54540;SHT30;40438;52.992;18.604;2024-02-21T05:01:37;6.15;94.26
54540;SHT30;40438;52.992;18.604;2024-02-21T05:04:03;6.18;94.33
54540;SHT30;40438;52.992;18.604;2024-02-21T05:06:29;6.18;94.36
54540;SHT30;40438;52.992;18.604;2024-02-21T05:08:55;6.09;94.53
54540;SHT30;40438;52.992;18.604;2024-02-21T05:11:21;6.15;94.43
54540;SHT30;40438;52.992;18.604;2024-02-21T05:13:48;6.17;94.59
54540;SHT30;40438;52.992;18.604;2024-02-21T05:16:14;6.12;94.51
54540;SHT30;40438;52.992;18.604;2024-02-21T05:18:40;6.18;94.53
54540;SHT30;40438;52.992;18.604;2024-02-21T05:21:06;6.12;94.54
54540;SHT30;40438;52.992;18.604;2024-02-21T05:23:31;6.18;94.53
54540;SHT30;40438;52.992;18.604;2024-02-21T05:25:57;6.21;94.50
54540;SHT30;40438;52.992;18.604;2024-02-21T05:28:23;6.15;94.42
54540;SHT30;40438;52.992;18.604;2024-02-21T05:30:50;6.19;94.31
54540;SHT30;40438;52.992;18.604;2024-02-21T05:33:16;6.15;94.55
54540;SHT30;40438;52.992;18.604;2024-02-21T05:35:42;6.08;94.74
54540;SHT30;40438;52.992;18.604;2024-02-21T05:38:07;6.14;94.66
54540;SHT30;40438;52.992;18.604;2024-02-21T05:40:33;6.11;94.58
54540;SHT30;40438;52.992;18.604;2024-02-21T05:42:59;6.11;94.59
54540;SHT30;40438;52.992;18.604;2024-02-21T05:45:25;6.08;94.81
54540;SHT30;40438;52.992;18.604;2024-02-21T05:47:52;5.99;94.93
54540;SHT30;40438;52.992;18.604;2024-02-21T05:50:17;6.11;94.77
54540;SHT30;40438;52.992;18.604;2024-02-21T05:52:43;6.09;94.69
54540;SHT30;40438;52.992;18.604;2024-02-21T05:55:09;6.05;94.90
54540;SHT30;40438;52.992;18.604;2024-02-21T05:57:35;6.07;94.92
54540;SHT30;40438;52.992;18.604;2024-02-21T06:00:03;6.08;94.95
54540;SHT30;40438;52.992;18.604;2024-02-21T06:02:38;6.04;94.97
54540;SHT30;40438;52.992;18.604;2024-02-21T06:05:05;6.09;94.87
54540;SHT30;40438;52.992;18.604;2024-02-21T06:07:31;6.02;94.89
54540;SHT30;40438;52.992;18.604;2024-02-21T06:09:57;6.05;94.83
54540;SHT30;40438;52.992;18.604;2024-02-21T06:12:22;6.05;94.88
54540;SHT30;40438;52.992;18.604;2024-02-21T06:14:48;6.08;94.79
54540;SHT30;40438;52.992;18.604;2024-02-21T06:17:14;6.07;94.79
54540;SHT30;40438;52.992;18.604;2024-02-21T06:19:41;6.01;94.83
54540;SHT30;40438;52.992;18.604;2024-02-21T06:22:09;6.08;94.87
54540;SHT30;40438;52.992;18.604;2024-02-21T06:24:34;6.07;94.82
54540;SHT30;40438;52.992;18.604;2024-02-21T06:27:00;6.04;94.82
54540;SHT30;40438;52.992;18.604;2024-02-21T06:29:26;6.12;94.66
54540;SHT30;40438;52.992;18.604;2024-02-21T06:31:51;6.08;94.67
54540;SHT30;40438;52.992;18.604;2024-02-21T06:34:17;6.04;94.89
54540;SHT30;40438;52.992;18.604;2024-02-21T06:36:44;6.07;94.94
54540;SHT30;40438;52.992;18.604;2024-02-21T06:39:12;6.09;94.77
54540;SHT30;40438;52.992;18.604;2024-02-21T06:41:37;6.14;94.62
54540;SHT30;40438;52.992;18.604;2024-02-21T06:44:03;6.09;94.76
54540;SHT30;40438;52.992;18.604;2024-02-21T06:46:29;6.08;94.77
54540;SHT30;40438;52.992;18.604;2024-02-21T06:48:55;6.19;94.59
54540;SHT30;40438;52.992;18.604;2024-02-21T06:51:21;6.12;94.78
54540;SHT30;40438;52.992;18.604;2024-02-21T06:53:47;6.11;95.01
54540;SHT30;40438;52.992;18.604;2024-02-21T06:56:14;6.17;94.90
54540;SHT30;40438;52.992;18.604;2024-02-21T06:58:40;6.15;94.95
54540;SHT30;40438;52.992;18.604;2024-02-21T07:01:06;6.18;94.91
54540;SHT30;40438;52.992;18.604;2024-02-21T07:03:32;6.19;94.93
54540;SHT30;40438;52.992;18.604;2024-02-21T07:05:58;6.22;94.79
54540;SHT30;40438;52.992;18.604;2024-02-21T07:08:24;6.24;94.72
54540;SHT30;40438;52.992;18.604;2024-02-21T07:10:50;6.29;94.62
54540;SHT30;40438;52.992;18.604;2024-02-21T07:13:17;6.25;94.72
54540;SHT30;40438;52.992;18.604;2024-02-21T07:15:42;6.22;94.74
54540;SHT30;40438;52.992;18.604;2024-02-21T07:18:08;6.21;94.75
54540;SHT30;40438;52.992;18.604;2024-02-21T07:20:34;6.24;94.75
54540;SHT30;40438;52.992;18.604;2024-02-21T07:23:00;6.28;94.67
54540;SHT30;40438;52.992;18.604;2024-02-21T07:25:25;6.25;94.42
54540;SHT30;40438;52.992;18.604;2024-02-21T07:27:51;6.26;94.62
54540;SHT30;40438;52.992;18.604;2024-02-21T07:30:18;6.24;94.66
54540;SHT30;40438;52.992;18.604;2024-02-21T07:32:44;6.25;94.67
54540;SHT30;40438;52.992;18.604;2024-02-21T07:35:10;6.19;94.81
54540;SHT30;40438;52.992;18.604;2024-02-21T07:37:36;6.25;94.84
54540;SHT30;40438;52.992;18.604;2024-02-21T07:40:02;6.30;94.79
54540;SHT30;40438;52.992;18.604;2024-02-21T07:42:28;6.29;94.63
54540;SHT30;40438;52.992;18.604;2024-02-21T07:44:53;6.33;94.68
54540;SHT30;40438;52.992;18.604;2024-02-21T07:47:20;6.38;94.60
54540;SHT30;40438;52.992;18.604;2024-02-21T07:49:46;6.38;94.51
54540;SHT30;40438;52.992;18.604;2024-02-21T07:52:12;6.35;94.61
54540;SHT30;40438;52.992;18.604;2024-02-21T07:54:38;6.40;94.52
54540;SHT30;40438;52.992;18.604;2024-02-21T07:57:04;6.43;94.42
54540;SHT30;40438;52.992;18.604;2024-02-21T07:59:30;6.40;94.46
54540;SHT30;40438;52.992;18.604;2024-02-21T08:01:56;6.43;94.45
54540;SHT30;40438;52.992;18.604;2024-02-21T08:04:23;6.47;94.41
54540;SHT30;40438;52.992;18.604;2024-02-21T08:06:51;6.53;94.25
54540;SHT30;40438;52.992;18.604;2024-02-21T08:09:17;6.49;94.16
54540;SHT30;40438;52.992;18.604;2024-02-21T08:11:43;6.52;94.16
54540;SHT30;40438;52.992;18.604;2024-02-21T08:14:08;6.47;94.11
54540;SHT30;40438;52.992;18.604;2024-02-21T08:16:34;6.54;93.91
54540;SHT30;40438;52.992;18.604;2024-02-21T08:19:00;6.53;93.87
54540;SHT30;40438;52.992;18.604;2024-02-21T08:21:27;6.54;93.96
54540;SHT30;40438;52.992;18.604;2024-02-21T08:23:53;6.53;93.90
54540;SHT30;40438;52.992;18.604;2024-02-21T08:26:18;6.56;93.93
54540;SHT30;40438;52.992;18.604;2024-02-21T08:28:44;6.67;93.47
54540;SHT30;40438;52.992;18.604;2024-02-21T08:31:10;6.69;93.54
54540;SHT30;40438;52.992;18.604;2024-02-21T08:33:36;6.72;93.40
54540;SHT30;40438;52.992;18.604;2024-02-21T08:36:01;6.72;93.38
54540;SHT30;40438;52.992;18.604;2024-02-21T08:38:28;6.70;93.63
54540;SHT30;40438;52.992;18.604;2024-02-21T08:40:54;6.73;93.42
54540;SHT30;40438;52.992;18.604;2024-02-21T08:43:20;6.76;93.51
54540;SHT30;40438;52.992;18.604;2024-02-21T08:45:46;6.73;93.56
54540;SHT30;40438;52.992;18.604;2024-02-21T08:48:11;6.77;93.26
54540;SHT30;40438;52.992;18.604;2024-02-21T08:50:37;6.79;93.34
54540;SHT30;40438;52.992;18.604;2024-02-21T08:53:03;6.88;93.37
54540;SHT30;40438;52.992;18.604;2024-02-21T08:55:30;6.83;93.51
54540;SHT30;40438;52.992;18.604;2024-02-21T08:57:56;6.83;93.70
54540;SHT30;40438;52.992;18.604;2024-02-21T09:00:22;6.83;93.62
54540;SHT30;40438;52.992;18.604;2024-02-21T09:02:48;6.81;93.74
54540;SHT30;40438;52.992;18.604;2024-02-21T09:05:14;6.84;93.80
54540;SHT30;40438;52.992;18.604;2024-02-21T09:07:39;6.84;94.02
54540;SHT30;40438;52.992;18.604;2024-02-21T09:10:06;6.91;94.05
54540;SHT30;40438;52.992;18.604;2024-02-21T09:12:33;6.86;93.75
54540;SHT30;40438;52.992;18.604;2024-02-21T09:14:59;6.88;93.76
54540;SHT30;40438;52.992;18.604;2024-02-21T09:17:25;6.90;93.89
54540;SHT30;40438;52.992;18.604;2024-02-21T09:19:50;6.97;93.70
54540;SHT30;40438;52.992;18.604;2024-02-21T09:22:16;6.94;93.84
54540;SHT30;40438;52.992;18.604;2024-02-21T09:24:42;6.94;93.96
54540;SHT30;40438;52.992;18.604;2024-02-21T09:27:08;6.88;94.09
54540;SHT30;40438;52.992;18.604;2024-02-21T09:29:35;6.87;94.05
54540;SHT30;40438;52.992;18.604;2024-02-21T09:32:00;6.93;93.63
54540;SHT30;40438;52.992;18.604;2024-02-21T09:34:26;6.97;93.54
54540;SHT30;40438;52.992;18.604;2024-02-21T09:36:52;6.98;93.64
54540;SHT30;40438;52.992;18.604;2024-02-21T09:39:18;6.90;93.84
54540;SHT30;40438;52.992;18.604;2024-02-21T09:41:50;6.96;93.60
54540;SHT30;40438;52.992;18.604;2024-02-21T09:44:16;6.96;93.82
54540;SHT30;40438;52.992;18.604;2024-02-21T09:46:49;6.88;94.07
54540;SHT30;40438;52.992;18.604;2024-02-21T09:49:23;6.90;94.11
54540;SHT30;40438;52.992;18.604;2024-02-21T09:51:53;6.97;93.81
54540;SHT30;40438;52.992;18.604;2024-02-21T09:54:19;6.97;93.89
54540;SHT30;40438;52.992;18.604;2024-02-21T09:56:45;6.98;93.65
54540;SHT30;40438;52.992;18.604;2024-02-21T09:59:11;7.00;93.79
54540;SHT30;40438;52.992;18.604;2024-02-21T10:01:37;7.01;93.88
54540;SHT30;40438;52.992;18.604;2024-02-21T10:04:05;6.98;94.04
54540;SHT30;40438;52.992;18.604;2024-02-21T10:06:31;7.03;93.97
54540;SHT30;40438;52.992;18.604;2024-02-21T10:08:56;7.08;93.95
54540;SHT30;40438;52.992;18.604;2024-02-21T10:11:23;7.04;93.89
54540;SHT30;40438;52.992;18.604;2024-02-21T10:13:48;7.09;93.67
54540;SHT30;40438;52.992;18.604;2024-02-21T10:16:15;7.08;93.80
54540;SHT30;40438;52.992;18.604;2024-02-21T10:18:41;7.12;93.22
54540;SHT30;40438;52.992;18.604;2024-02-21T10:21:08;7.18;92.97
54540;SHT30;40438;52.992;18.604;2024-02-21T10:23:45;7.15;93.30
54540;SHT30;40438;52.992;18.604;2024-02-21T10:26:11;7.17;93.20
54540;SHT30;40438;52.992;18.604;2024-02-21T10:28:37;7.15;93.38
54540;SHT30;40438;52.992;18.604;2024-02-21T10:31:03;7.11;93.70
54540;SHT30;40438;52.992;18.604;2024-02-21T10:33:29;7.24;93.82
54540;SHT30;40438;52.992;18.604;2024-02-21T10:35:55;7.19;93.85
54540;SHT30;40438;52.992;18.604;2024-02-21T10:38:32;7.17;94.02
54540;SHT30;40438;52.992;18.604;2024-02-21T10:40:58;7.26;93.86
54540;SHT30;40438;52.992;18.604;2024-02-21T10:43:25;7.24;93.67
54540;SHT30;40438;52.992;18.604;2024-02-21T10:45:52;7.26;93.95
54540;SHT30;40438;52.992;18.604;2024-02-21T10:48:25;7.24;93.80
54540;SHT30;40438;52.992;18.604;2024-02-21T10:50:56;7.19;93.97
54540;SHT30;40438;52.992;18.604;2024-02-21T10:53:32;7.25;93.97
54540;SHT30;40438;52.992;18.604;2024-02-21T10:56:18;7.34;93.98
54540;SHT30;40438;52.992;18.604;2024-02-21T10:58:48;7.24;94.05
54540;SHT30;40438;52.992;18.604;2024-02-21T11:01:14;7.31;94.14
54540;SHT30;40438;52.992;18.604;2024-02-21T11:03:41;7.38;93.95
54540;SHT30;40438;52.992;18.604;2024-02-21T11:06:07;7.32;93.99
54540;SHT30;40438;52.992;18.604;2024-02-21T11:08:34;7.26;94.16
54540;SHT30;40438;52.992;18.604;2024-02-21T11:11:00;7.29;94.15
54540;SHT30;40438;52.992;18.604;2024-02-21T11:13:35;7.29;94.41
54540;SHT30;40438;52.992;18.604;2024-02-21T11:16:11;7.26;94.22
54540;SHT30;40438;52.992;18.604;2024-02-21T11:18:37;7.25;94.39
54540;SHT30;40438;52.992;18.604;2024-02-21T11:21:04;7.32;94.21
54540;SHT30;40438;52.992;18.604;2024-02-21T11:23:29;7.31;94.23
54540;SHT30;40438;52.992;18.604;2024-02-21T11:26:04;7.34;94.05
54540;SHT30;40438;52.992;18.604;2024-02-21T11:28:30;7.35;94.03
54540;SHT30;40438;52.992;18.604;2024-02-21T11:31:06;7.40;94.16
54540;SHT30;40438;52.992;18.604;2024-02-21T11:33:33;7.36;94.20
54540;SHT30;40438;52.992;18.604;2024-02-21T11:35:59;7.40;94.05
54540;SHT30;40438;52.992;18.604;2024-02-21T11:38:24;7.43;94.02
54540;SHT30;40438;52.992;18.604;2024-02-21T11:40:50;7.40;94.25
54540;SHT30;40438;52.992;18.604;2024-02-21T11:43:16;7.43;94.28
54540;SHT30;40438;52.992;18.604;2024-02-21T11:45:42;7.49;93.85
54540;SHT30;40438;52.992;18.604;2024-02-21T11:48:09;7.43;93.54
54540;SHT30;40438;52.992;18.604;2024-02-21T11:50:35;7.50;93.37
54540;SHT30;40438;52.992;18.604;2024-02-21T11:53:01;7.49;93.65
54540;SHT30;40438;52.992;18.604;2024-02-21T11:55:27;7.57;93.56
54540;SHT30;40438;52.992;18.604;2024-02-21T11:57:53;7.53;93.41
54540;SHT30;40438;52.992;18.604;2024-02-21T12:00:20;7.59;93.71
54540;SHT30;40438;52.992;18.604;2024-02-21T12:02:46;7.60;93.94
54540;SHT30;40438;52.992;18.604;2024-02-21T12:05:13;7.59;94.16
54540;SHT30;40438;52.992;18.604;2024-02-21T12:07:39;7.59;94.00
54540;SHT30;40438;52.992;18.604;2024-02-21T12:10:07;7.62;93.97
54540;SHT30;40438;52.992;18.604;2024-02-21T12:12:33;7.71;93.98
54540;SHT30;40438;52.992;18.604;2024-02-21T12:14:59;7.76;93.51
54540;SHT30;40438;52.992;18.604;2024-02-21T12:17:25;7.86;93.03
54540;SHT30;40438;52.992;18.604;2024-02-21T12:19:51;7.87;93.21
54540;SHT30;40438;52.992;18.604;2024-02-21T12:22:18;7.97;92.84
54540;SHT30;40438;52.992;18.604;2024-02-21T12:24:44;7.91;92.87
54540;SHT30;40438;52.992;18.604;2024-02-21T12:27:09;7.97;92.51
54540;SHT30;40438;52.992;18.604;2024-02-21T12:29:35;7.91;92.50
54540;SHT30;40438;52.992;18.604;2024-02-21T12:32:01;7.93;92.10
54540;SHT30;40438;52.992;18.604;2024-02-21T12:34:27;7.90;92.30
54540;SHT30;40438;52.992;18.604;2024-02-21T12:36:52;7.96;91.98
54540;SHT30;40438;52.992;18.604;2024-02-21T12:39:20;7.90;92.17
54540;SHT30;40438;52.992;18.604;2024-02-21T12:41:45;7.96;92.28
54540;SHT30;40438;52.992;18.604;2024-02-21T12:44:11;7.86;92.50
54540;SHT30;40438;52.992;18.604;2024-02-21T12:46:37;7.94;91.95
54540;SHT30;40438;52.992;18.604;2024-02-21T12:49:04;7.97;92.14
54540;SHT30;40438;52.992;18.604;2024-02-21T12:51:30;7.96;92.05
54540;SHT30;40438;52.992;18.604;2024-02-21T12:53:56;7.91;92.13
54540;SHT30;40438;52.992;18.604;2024-02-21T12:56:23;8.06;91.62
54540;SHT30;40438;52.992;18.604;2024-02-21T12:58:49;7.91;92.10
54540;SHT30;40438;52.992;18.604;2024-02-21T13:01:14;7.93;92.19
54540;SHT30;40438;52.992;18.604;2024-02-21T13:03:40;8.01;91.80
54540;SHT30;40438;52.992;18.604;2024-02-21T13:06:06;7.94;91.90
54540;SHT30;40438;52.992;18.604;2024-02-21T13:08:32;7.91;92.33
54540;SHT30;40438;52.992;18.604;2024-02-21T13:10:59;8.06;91.98
54540;SHT30;40438;52.992;18.604;2024-02-21T13:13:26;8.00;92.14
54540;SHT30;40438;52.992;18.604;2024-02-21T13:15:52;7.93;92.44
54540;SHT30;40438;52.992;18.604;2024-02-21T13:18:18;7.90;92.14
54540;SHT30;40438;52.992;18.604;2024-02-21T13:20:43;7.85;92.57
54540;SHT30;40438;52.992;18.604;2024-02-21T13:23:09;7.87;92.60
54540;SHT30;40438;52.992;18.604;2024-02-21T13:25:35;7.86;92.64
54540;SHT30;40438;52.992;18.604;2024-02-21T13:28:00;7.85;92.70
54540;SHT30;40438;52.992;18.604;2024-02-21T13:30:28;7.86;92.66
54540;SHT30;40438;52.992;18.604;2024-02-21T13:32:53;7.87;92.85
54540;SHT30;40438;52.992;18.604;2024-02-21T13:35:19;7.80;92.97
54540;SHT30;40438;52.992;18.604;2024-02-21T13:37:45;7.87;92.64
54540;SHT30;40438;52.992;18.604;2024-02-21T13:40:11;7.91;92.80
54540;SHT30;40438;52.992;18.604;2024-02-21T13:42:37;7.94;92.71
54540;SHT30;40438;52.992;18.604;2024-02-21T13:45:03;7.97;92.59
54540;SHT30;40438;52.992;18.604;2024-02-21T13:47:31;7.83;93.18
54540;SHT30;40438;52.992;18.604;2024-02-21T13:49:57;7.85;93.31
54540;SHT30;40438;52.992;18.604;2024-02-21T13:52:22;7.80;93.71
54540;SHT30;40438;52.992;18.604;2024-02-21T13:54:49;7.77;94.05
54540;SHT30;40438;52.992;18.604;2024-02-21T13:57:15;7.87;94.04
54540;SHT30;40438;52.992;18.604;2024-02-21T13:59:40;7.85;93.99
54540;SHT30;40438;52.992;18.604;2024-02-21T14:02:06;7.83;94.44
54540;SHT30;40438;52.992;18.604;2024-02-21T14:04:33;7.76;94.32
54540;SHT30;40438;52.992;18.604;2024-02-21T14:06:59;7.76;94.59
54540;SHT30;40438;52.992;18.604;2024-02-21T14:09:25;7.77;94.73
54540;SHT30;40438;52.992;18.604;2024-02-21T14:11:51;7.75;94.74
54540;SHT30;40438;52.992;18.604;2024-02-21T14:14:16;7.77;94.56
54540;SHT30;40438;52.992;18.604;2024-02-21T14:16:42;7.82;94.69
54540;SHT30;40438;52.992;18.604;2024-02-21T14:19:08;7.80;94.29
54540;SHT30;40438;52.992;18.604;2024-02-21T14:21:35;7.79;94.48
54540;SHT30;40438;52.992;18.604;2024-02-21T14:24:01;7.80;94.35
54540;SHT30;40438;52.992;18.604;2024-02-21T14:26:26;7.83;94.29
54540;SHT30;40438;52.992;18.604;2024-02-21T14:28:52;7.79;94.27
54540;SHT30;40438;52.992;18.604;2024-02-21T14:31:18;7.83;94.45
54540;SHT30;40438;52.992;18.604;2024-02-21T14:33:44;7.89;94.39
54540;SHT30;40438;52.992;18.604;2024-02-21T14:36:09;7.79;94.32
54540;SHT30;40438;52.992;18.604;2024-02-21T14:38:37;7.75;94.63
54540;SHT30;40438;52.992;18.604;2024-02-21T14:41:02;7.73;94.72
54540;SHT30;40438;52.992;18.604;2024-02-21T14:43:28;7.75;94.90
54540;SHT30;40438;52.992;18.604;2024-02-21T14:45:54;7.77;94.99
54540;SHT30;40438;52.992;18.604;2024-02-21T14:48:20;7.77;94.90
54540;SHT30;40438;52.992;18.604;2024-02-21T14:50:45;7.79;94.98
54540;SHT30;40438;52.992;18.604;2024-02-21T14:53:11;7.79;94.91
54540;SHT30;40438;52.992;18.604;2024-02-21T14:55:38;7.77;95.08
54540;SHT30;40438;52.992;18.604;2024-02-21T14:58:07;7.71;95.00
54540;SHT30;40438;52.992;18.604;2024-02-21T15:00:33;7.73;95.10
54540;SHT30;40438;52.992;18.604;2024-02-21T15:02:59;7.75;94.97
54540;SHT30;40438;52.992;18.604;2024-02-21T15:05:25;7.77;94.95
54540;SHT30;40438;52.992;18.604;2024-02-21T15:07:51;7.70;94.97
54540;SHT30;40438;52.992;18.604;2024-02-21T15:10:17;7.79;95.06
54540;SHT30;40438;52.992;18.604;2024-02-21T15:12:44;7.79;94.92
54540;SHT30;40438;52.992;18.604;2024-02-21T15:15:10;7.76;94.91
54540;SHT30;40438;52.992;18.604;2024-02-21T15:17:36;7.83;94.86
54540;SHT30;40438;52.992;18.604;2024-02-21T15:20:02;7.75;94.87
54540;SHT30;40438;52.992;18.604;2024-02-21T15:22:28;7.80;94.52
54540;SHT30;40438;52.992;18.604;2024-02-21T15:24:53;7.79;94.44